Pleasant Valley, VA (22848)

10:58 AM EDT on July 04, 2015 (GMT -0400)
Pleasant Valley Station | | Change Station
CLOSE
Current Station
Personal Weather Station
Location: Harrisonburg, VA
Elevation: 1227 ft
Nearby Weather Stations

Elev 1227 ft 38.40 °N, 78.90 °W | Updated 4 seconds ago

Overcast
Overcast
72.7 °F
Feels Like 71 °F
N
2.9
Wind Variable Wind from SW
Gusts 6.0 mph

Today
High -- | Low -- °F
--% Chance of Precip.
Yesterday
High -- | Low -- °F
Precip. -- in
5:56 AM 8:42 PM
Waning Gibbous, 92% visible
Pressure 29.95 in
Visibility 10.0 miles
Clouds Scattered Clouds 1400 ft
Mostly Cloudy 1900 ft
Mostly Cloudy 7500 ft
Heat Index 71 °F
Dew Point 69 °F
Humidity 88%
Rainfall 0.07 in
Snow Depth Not available.
UV 4 out of 12
Pollen .50 out of 12
Air Quality Not available.
Flu Activity Not available.
METAR KSHD 041435Z AUTO 20007KT 10SM SCT014 BKN019 BKN075 25/20 A2995 RMK AO2 T02510201

More Conditions Fewer Conditions

Pressure 29.95 in
Visibility 10.0 miles
Clouds Scattered Clouds 1400 ft
Mostly Cloudy 1900 ft
Mostly Cloudy 7500 ft
Heat Index 71 °F
Dew Point 69 °F
Humidity 88%
Rainfall 0.07 in
Snow Depth Not available.
UV 4 out of 12
Pollen .50 out of 12
Air Quality Not available.
Flu Activity Not available.
METAR KSHD 041435Z AUTO 20007KT 10SM SCT014 BKN019 BKN075 25/20 A2995 RMK AO2 T02510201

More Conditions Fewer Conditions

10-Day Weather Forecast

×

Almanac

Astronomy

Jul. 04, 2015 Rise Set
Actual Time
Civil Twilight
Nautical Twilight
Astronomical Twilight
Moon
Length of Visible Light
Length of Day
Tomorrow will be .
, % of the Moon is Illuminated

Today's Extremes

State Highs State Lows

Community

WunderPhotos

Upload Photos

1,834,982 photos uploaded!

WunderBlogs® & News

Nearby

Air Quality

  Air Quality AQ Index Pollutant
Not available.

Snow Depth

Station Depth Elevation

Earthquake Activity

City Distance Mag. Time & Date
Minimum magnitude displayed is 2.5.

Coastal Water Temperatures

Place Temperature

Stations

Nearby Weather Stations

Station Location Temp. Windchill Dew Point Humidity Wind Precip. Elev Updated Type